createdAt,value
2018-06-29T00:00:45.590Z,67.84
2018-06-29T00:01:45.578Z,68.04
2018-06-29T00:02:45.570Z,68.14
2018-06-29T00:03:45.559Z,67.67
2018-06-29T00:04:45.564Z,68.57
2018-06-29T00:05:45.548Z,68.57
2018-06-29T00:06:45.525Z,68.57
2018-06-29T00:07:45.515Z,69.01
2018-06-29T00:08:45.502Z,68.71
2018-06-29T00:09:45.506Z,68.71
2018-06-29T00:10:45.479Z,68.71
2018-06-29T00:11:45.469Z,69.11
2018-06-29T00:12:45.461Z,68.71
2018-06-29T00:13:45.451Z,68.51
2018-06-29T00:14:45.450Z,68.81
2018-06-29T00:15:45.427Z,69.65
2018-06-29T00:16:45.418Z,70.06
2018-06-29T00:17:45.407Z,69.75
2018-06-29T00:18:45.394Z,70.06
2018-06-29T00:19:45.394Z,70.06
2018-06-29T00:20:45.371Z,70.29
2018-06-29T00:21:45.373Z,69.75
2018-06-29T00:22:45.363Z,70.06
2018-06-29T00:23:45.338Z,70.19
2018-06-29T00:24:45.331Z,70.19
2018-06-29T00:25:45.319Z,70.09
2018-06-29T00:26:45.323Z,70.09
2018-06-29T00:27:45.298Z,70.09
2018-06-29T00:28:45.284Z,70.09
2018-06-29T00:29:45.273Z,70.29
2018-06-29T00:30:45.270Z,70.49
2018-06-29T00:31:45.270Z,70.79
2018-06-29T00:32:45.242Z,70.69
2018-06-29T00:33:45.232Z,70.89
2018-06-29T00:34:45.221Z,70.69
2018-06-29T00:35:45.227Z,70.49
2018-06-29T00:36:45.198Z,70.79
2018-06-29T00:37:45.193Z,70.39
2018-06-29T00:38:45.191Z,70.49
2018-06-29T00:39:45.166Z,70.69
2018-06-29T00:40:45.154Z,71.00
2018-06-29T00:41:45.157Z,71.33
2018-06-29T00:42:45.134Z,71.23
2018-06-29T00:43:45.122Z,71.33
2018-06-29T00:44:45.113Z,71.23
2018-06-29T00:45:45.101Z,71.73
2018-06-29T00:46:45.106Z,71.53
2018-06-29T00:47:45.078Z,71.53
2018-06-29T00:48:45.069Z,71.44
2018-06-29T00:49:45.056Z,71.64
2018-06-29T00:50:45.048Z,71.13
2018-06-29T00:51:45.051Z,71.53
2018-06-29T00:52:45.025Z,71.33
2018-06-29T00:53:45.029Z,71.53
2018-06-29T00:54:45.003Z,71.33
2018-06-29T00:55:44.992Z,70.96
2018-06-29T00:56:44.980Z,71.23
2018-06-29T00:57:44.991Z,71.37
2018-06-29T00:58:44.959Z,71.26
2018-06-29T00:59:44.949Z,71.67
2018-06-29T01:00:44.938Z,72.08
2018-06-29T01:01:44.928Z,71.47
2018-06-29T01:02:44.916Z,71.97
2018-06-29T01:03:44.918Z,72.11
2018-06-29T01:04:44.895Z,72.41
2018-06-29T01:05:44.881Z,72.92
2018-06-29T01:06:44.871Z,72.72
2018-06-29T01:07:44.861Z,73.15
2018-06-29T01:08:44.864Z,73.12
2018-06-29T01:09:44.836Z,72.51
2018-06-29T01:10:44.826Z,72.61
2018-06-29T01:11:44.816Z,72.41
2018-06-29T01:12:44.805Z,71.87
2018-06-29T01:13:44.806Z,71.97
2018-06-29T01:14:44.789Z,71.77
2018-06-29T01:15:44.771Z,71.57
2018-06-29T01:16:44.762Z,71.57
2018-06-29T01:17:44.768Z,71.87
2018-06-29T01:18:44.741Z,71.77
2018-06-29T01:19:44.730Z,71.91
2018-06-29T01:20:44.717Z,72.21
2018-06-29T01:21:44.700Z,72.31
2018-06-29T01:22:44.692Z,72.21
2018-06-29T01:23:44.725Z,72.81
2018-06-29T01:24:44.669Z,72.92
2018-06-29T01:25:44.662Z,73.12
2018-06-29T01:26:44.649Z,73.32
2018-06-29T01:27:44.637Z,73.56
2018-06-29T01:28:44.658Z,73.46
2018-06-29T01:29:44.635Z,73.76
2018-06-29T01:30:44.604Z,73.46
2018-06-29T01:31:44.594Z,73.56
2018-06-29T01:32:44.608Z,73.96
2018-06-29T01:33:44.571Z,73.96
2018-06-29T01:34:44.592Z,74.07
2018-06-29T01:35:44.549Z,74.16
2018-06-29T01:36:44.541Z,74.20
2018-06-29T01:37:44.526Z,74.10
2018-06-29T01:38:44.519Z,74.71
2018-06-29T01:39:44.508Z,74.40
2018-06-29T01:40:44.509Z,74.71
2018-06-29T01:41:44.494Z,74.60
2018-06-29T01:42:44.474Z,74.40
2018-06-29T01:43:44.464Z,74.51
2018-06-29T01:44:44.451Z,74.60
2018-06-29T01:45:44.461Z,74.51
2018-06-29T01:46:44.428Z,74.40
2018-06-29T01:47:44.416Z,74.91
2018-06-29T01:48:44.404Z,74.51
2018-06-29T01:49:45.729Z,74.54
2018-06-29T01:50:44.382Z,74.51
2018-06-29T01:51:44.387Z,74.10
2018-06-29T01:52:44.378Z,74.30
2018-06-29T01:53:44.352Z,74.24
2018-06-29T01:54:44.340Z,74.24
2018-06-29T01:55:44.329Z,74.20
2018-06-29T01:56:44.330Z,74.10
2018-06-29T01:57:44.304Z,74.00
2018-06-29T01:58:44.299Z,74.51
2018-06-29T01:59:44.282Z,74.10
2018-06-29T02:00:44.272Z,74.30
2018-06-29T02:01:44.277Z,74.10
2018-06-29T02:02:44.250Z,74.54
2018-06-29T02:03:44.250Z,74.64
2018-06-29T02:04:44.226Z,74.54
2018-06-29T02:05:44.231Z,74.84
2018-06-29T02:06:44.206Z,74.64
2018-06-29T02:07:44.192Z,74.84
2018-06-29T02:08:44.181Z,75.08
2018-06-29T02:09:44.173Z,75.18
2018-06-29T02:10:44.172Z,74.88
2018-06-29T02:11:44.144Z,75.08
2018-06-29T02:12:44.137Z,75.28
2018-06-29T02:13:44.123Z,75.28
2018-06-29T02:14:44.111Z,74.95
2018-06-29T02:15:44.138Z,74.74
2018-06-29T02:16:44.090Z,74.68
2018-06-29T02:17:44.078Z,75.49
2018-06-29T02:18:44.066Z,76.20
2018-06-29T02:19:44.072Z,76.98
2018-06-29T02:20:44.044Z,77.45
2018-06-29T02:21:44.046Z,76.94
2018-06-29T02:22:44.024Z,77.34
2018-06-29T02:23:44.013Z,77.38
2018-06-29T02:24:44.009Z,77.25
2018-06-29T02:25:43.989Z,76.87
2018-06-29T02:26:43.997Z,76.84
2018-06-29T02:27:44.010Z,77.18
2018-06-29T02:28:43.954Z,77.48
2018-06-29T02:29:43.942Z,77.59
2018-06-29T02:30:44.031Z,78.13
2018-06-29T02:31:43.923Z,78.23
2018-06-29T02:32:43.929Z,78.64
2018-06-29T02:33:43.900Z,78.23
2018-06-29T02:34:43.891Z,78.23
2018-06-29T02:35:43.888Z,78.67
2018-06-29T02:36:43.864Z,79.38
2018-06-29T02:37:43.854Z,79.99
2018-06-29T02:38:43.842Z,79.59
2018-06-29T02:39:43.848Z,79.38
2018-06-29T02:40:43.819Z,79.08
2018-06-29T02:41:43.811Z,79.08
2018-06-29T02:42:43.809Z,79.08
2018-06-29T02:43:43.786Z,80.24
2018-06-29T02:44:43.794Z,80.19
2018-06-29T02:45:43.764Z,79.90
2018-06-29T02:46:43.754Z,80.03
2018-06-29T02:47:43.740Z,79.99
2018-06-29T02:48:43.737Z,80.03
2018-06-29T02:49:43.716Z,80.24
2018-06-29T02:50:43.722Z,80.94
2018-06-29T02:51:43.697Z,80.24
2018-06-29T02:52:43.684Z,80.54
2018-06-29T02:53:43.687Z,80.54
2018-06-29T02:54:43.665Z,80.54
2018-06-29T02:55:43.654Z,80.24
2018-06-29T02:56:43.641Z,80.78
2018-06-29T02:57:43.628Z,80.68
2018-06-29T02:58:43.631Z,80.78
2018-06-29T02:59:43.610Z,81.29
2018-06-29T03:00:43.604Z,81.19
2018-06-29T03:01:43.584Z,80.74
2018-06-29T03:02:43.577Z,80.74
2018-06-29T03:03:43.575Z,80.44
2018-06-29T03:04:43.601Z,80.27
2018-06-29T03:05:43.549Z,80.24
2018-06-29T03:06:43.529Z,78.98
2018-06-29T03:07:43.516Z,78.98
2018-06-29T03:08:43.506Z,79.08
2018-06-29T03:09:43.498Z,79.08
2018-06-29T03:10:43.528Z,79.90
2018-06-29T03:11:43.472Z,79.18
2018-06-29T03:12:43.464Z,79.08
2018-06-29T03:13:43.455Z,79.28
2018-06-29T03:14:43.439Z,78.88
2018-06-29T03:15:43.429Z,79.08
2018-06-29T03:16:43.447Z,78.98
2018-06-29T03:17:43.409Z,79.28
2018-06-29T03:18:43.399Z,79.69
2018-06-29T03:19:43.387Z,79.28
2018-06-29T03:20:43.375Z,79.18
2018-06-29T03:21:43.378Z,78.78
2018-06-29T03:22:43.352Z,79.18
2018-06-29T03:23:43.341Z,79.38
2018-06-29T03:24:43.350Z,79.38
2018-06-29T03:25:43.319Z,79.38
2018-06-29T03:26:43.312Z,79.28
2018-06-29T03:27:43.296Z,78.74
2018-06-29T03:28:43.289Z,78.53
2018-06-29T03:29:43.274Z,78.74
2018-06-29T03:30:43.306Z,78.17
2018-06-29T03:31:43.251Z,78.44
2018-06-29T03:32:43.261Z,78.74
2018-06-29T03:33:43.229Z,78.03
2018-06-29T03:34:43.220Z,77.42
2018-06-29T03:35:43.208Z,77.08
2018-06-29T03:36:43.213Z,77.18
2018-06-29T03:37:43.186Z,77.59
2018-06-29T03:38:43.173Z,76.87
2018-06-29T03:39:43.164Z,76.87
2018-06-29T03:40:43.225Z,76.67
2018-06-29T03:41:43.169Z,76.27
2018-06-29T03:42:43.130Z,75.96
2018-06-29T03:43:43.125Z,75.96
2018-06-29T03:44:43.111Z,75.96
2018-06-29T03:45:43.099Z,75.96
2018-06-29T03:46:43.089Z,76.23
2018-06-29T03:47:43.087Z,76.06
2018-06-29T03:48:43.063Z,76.17
2018-06-29T03:49:43.095Z,75.62
2018-06-29T03:50:43.044Z,75.93
2018-06-29T03:51:43.031Z,75.22
2018-06-29T03:52:43.022Z,75.32
2018-06-29T03:53:43.009Z,75.12
2018-06-29T03:54:42.997Z,74.71
2018-06-29T03:55:43.001Z,74.81
2018-06-29T03:56:42.975Z,74.88
2018-06-29T03:57:42.961Z,74.57
2018-06-29T03:58:42.965Z,73.97
2018-06-29T03:59:42.940Z,74.17
2018-06-29T04:00:42.929Z,73.86
2018-06-29T04:01:42.914Z,73.25
2018-06-29T04:02:42.906Z,73.73
2018-06-29T04:03:42.915Z,73.63
2018-06-29T04:04:42.881Z,73.63
2018-06-29T04:05:42.873Z,73.73
2018-06-29T04:06:42.860Z,73.36
2018-06-29T04:07:42.850Z,72.52
2018-06-29T04:08:42.843Z,72.41
2018-06-29T04:09:42.839Z,72.17
2018-06-29T04:10:42.817Z,72.17
2018-06-29T04:11:42.813Z,71.57
2018-06-29T04:12:42.792Z,71.26
2018-06-29T04:13:42.784Z,71.06
2018-06-29T04:14:42.785Z,70.65
2018-06-29T04:15:42.759Z,70.52
2018-06-29T04:16:42.746Z,70.32
2018-06-29T04:17:42.737Z,70.12
2018-06-29T04:18:42.724Z,70.32
2018-06-29T04:19:42.726Z,69.81
2018-06-29T04:20:42.702Z,70.02
2018-06-29T04:21:42.691Z,70.42
2018-06-29T04:22:42.680Z,69.92
2018-06-29T04:23:42.670Z,69.81
2018-06-29T04:24:42.670Z,70.12
2018-06-29T04:25:42.664Z,70.12
2018-06-29T04:26:42.634Z,69.92
2018-06-29T04:27:42.626Z,69.21
2018-06-29T04:28:42.615Z,69.18
2018-06-29T04:29:42.601Z,69.18
2018-06-29T04:30:42.590Z,69.07
2018-06-29T04:31:42.594Z,69.89
2018-06-29T04:32:42.581Z,69.98
2018-06-29T04:33:42.557Z,69.98
2018-06-29T04:34:42.547Z,69.98
2018-06-29T04:35:42.551Z,69.98
2018-06-29T04:36:42.547Z,69.98
2018-06-29T04:37:42.525Z,69.78
2018-06-29T04:38:42.505Z,70.18
2018-06-29T04:39:42.495Z,69.48
2018-06-29T04:40:42.500Z,69.98
2018-06-29T04:41:42.471Z,70.15
2018-06-29T04:42:42.459Z,69.27
2018-06-29T04:43:42.452Z,70.18
2018-06-29T04:44:42.438Z,70.18
2018-06-29T04:45:42.428Z,69.14
2018-06-29T04:46:42.429Z,68.94
2018-06-29T04:47:42.403Z,69.24
2018-06-29T04:48:42.394Z,69.14
2018-06-29T04:49:42.388Z,70.15
2018-06-29T04:50:42.370Z,68.74
2018-06-29T04:51:42.371Z,69.11
2018-06-29T04:52:42.352Z,68.84
2018-06-29T04:53:42.341Z,69.01
2018-06-29T04:54:42.330Z,68.91
2018-06-29T04:55:42.320Z,68.37
2018-06-29T04:56:42.320Z,68.07
2018-06-29T04:57:42.300Z,68.27
2018-06-29T04:58:42.284Z,68.37
2018-06-29T04:59:42.278Z,67.46
2018-06-29T05:00:42.263Z,67.56
2018-06-29T05:01:42.264Z,67.56
2018-06-29T05:02:42.263Z,66.65
2018-06-29T05:03:42.232Z,66.65
2018-06-29T05:04:42.223Z,67.23
2018-06-29T05:05:42.212Z,66.93
2018-06-29T05:06:42.203Z,66.32
2018-06-29T05:07:42.187Z,65.99
2018-06-29T05:08:42.192Z,66.59
2018-06-29T05:09:42.166Z,66.49
2018-06-29T05:10:42.153Z,66.32
2018-06-29T05:11:42.144Z,65.28
2018-06-29T05:12:42.134Z,64.98
2018-06-29T05:13:42.136Z,65.58
2018-06-29T05:14:42.131Z,64.84
2018-06-29T05:15:42.104Z,63.93
2018-06-29T05:16:42.094Z,64.14
2018-06-29T05:17:42.081Z,64.24
2018-06-29T05:18:42.068Z,63.70
2018-06-29T05:19:42.056Z,63.60
2018-06-29T05:20:42.073Z,63.90
2018-06-29T05:21:42.038Z,63.70
2018-06-29T05:22:42.037Z,63.60
2018-06-29T05:23:42.014Z,63.70
2018-06-29T05:24:42.006Z,63.87
2018-06-29T05:25:41.993Z,62.77
2018-06-29T05:26:41.995Z,63.17
2018-06-29T05:27:41.972Z,62.26
2018-06-29T05:28:42.112Z,63.14
2018-06-29T05:29:41.949Z,62.84
2018-06-29T05:30:41.941Z,62.04
2018-06-29T05:31:41.941Z,62.44
2018-06-29T05:32:41.915Z,62.24
2018-06-29T05:33:41.922Z,61.93
2018-06-29T05:34:41.892Z,61.93
2018-06-29T05:35:41.885Z,61.90
2018-06-29T05:36:41.873Z,62.10
2018-06-29T05:37:41.873Z,61.90
2018-06-29T05:38:41.855Z,61.70
2018-06-29T05:39:41.851Z,61.70
2018-06-29T05:40:41.825Z,61.40
2018-06-29T05:41:41.843Z,61.20
2018-06-29T05:42:41.866Z,60.77
2018-06-29T05:43:41.794Z,60.57
2018-06-29T05:44:41.803Z,60.53
2018-06-29T05:45:41.771Z,59.43
2018-06-29T05:46:41.764Z,59.00
2018-06-29T05:47:41.758Z,59.33
2018-06-29T05:48:41.741Z,59.53
2018-06-29T05:49:41.731Z,59.63
2018-06-29T05:50:41.734Z,59.60
2018-06-29T05:51:41.783Z,58.60
2018-06-29T05:52:41.695Z,57.87
2018-06-29T05:53:41.688Z,57.57
2018-06-29T05:54:41.676Z,57.14
2018-06-29T05:55:41.678Z,57.44
2018-06-29T05:56:41.655Z,57.26
2018-06-29T05:57:41.642Z,57.44
2018-06-29T05:58:41.630Z,57.21
2018-06-29T05:59:41.638Z,57.84
2018-06-29T06:00:41.625Z,58.51
2018-06-29T06:01:41.597Z,57.11
2018-06-29T06:02:41.587Z,56.05
2018-06-29T06:03:41.577Z,55.55
2018-06-29T06:04:41.638Z,55.55
2018-06-29T06:05:41.581Z,54.62
2018-06-29T06:06:41.545Z,54.20
2018-06-29T06:07:41.533Z,55.13
2018-06-29T06:08:41.519Z,54.57
2018-06-29T06:09:41.512Z,53.47
2018-06-29T06:10:41.515Z,53.24
2018-06-29T06:11:41.499Z,54.07
2018-06-29T06:12:41.477Z,53.77
2018-06-29T06:13:41.465Z,53.47
2018-06-29T06:14:41.458Z,52.82
2018-06-29T06:15:41.461Z,51.69
2018-06-29T06:16:41.473Z,52.47
2018-06-29T06:17:41.424Z,52.14
2018-06-29T06:18:41.410Z,51.02
2018-06-29T06:19:41.400Z,50.92
2018-06-29T06:20:41.392Z,50.74
2018-06-29T06:21:41.382Z,50.92
2018-06-29T06:22:41.423Z,50.49
2018-06-29T06:23:41.355Z,50.52
2018-06-29T06:24:41.346Z,50.12
2018-06-29T06:25:41.337Z,50.62
2018-06-29T06:26:41.324Z,51.45
2018-06-29T06:27:41.326Z,50.52
2018-06-29T06:28:41.302Z,50.30
2018-06-29T06:29:41.290Z,49.70
2018-06-29T06:30:41.277Z,49.20
2018-06-29T06:31:41.272Z,48.83
2018-06-29T06:32:41.277Z,47.66
2018-06-29T06:33:41.247Z,46.25
2018-06-29T06:34:41.237Z,46.65
2018-06-29T06:35:41.232Z,47.40
2018-06-29T06:36:41.215Z,45.79
2018-06-29T06:37:41.203Z,45.11
2018-06-29T06:38:41.208Z,45.51
2018-06-29T06:39:41.182Z,45.19
2018-06-29T06:40:41.194Z,46.08
2018-06-29T06:41:41.221Z,46.11
2018-06-29T06:42:41.163Z,44.52
2018-06-29T06:43:41.139Z,46.49
2018-06-29T06:44:41.128Z,47.49
2018-06-29T06:45:41.115Z,48.46
2018-06-29T06:46:41.118Z,46.33
2018-06-29T06:47:41.095Z,45.01
2018-06-29T06:48:41.101Z,45.49
2018-06-29T06:49:41.071Z,44.95
2018-06-29T06:50:41.058Z,44.13
2018-06-29T06:51:41.050Z,42.96
2018-06-29T06:52:41.039Z,45.41
2018-06-29T06:53:41.038Z,44.27
2018-06-29T06:54:41.030Z,43.93
2018-06-29T06:55:41.003Z,44.04
2018-06-29T06:56:40.994Z,42.94
2018-06-29T06:57:40.985Z,43.91
2018-06-29T06:58:40.977Z,42.82
2018-06-29T06:59:40.984Z,42.72
2018-06-29T07:00:40.952Z,43.00
2018-06-29T07:01:40.942Z,44.21
2018-06-29T07:02:40.930Z,44.13
2018-06-29T07:03:40.917Z,44.09
2018-06-29T07:04:40.910Z,43.57
2018-06-29T07:05:40.912Z,43.62
2018-06-29T07:06:40.888Z,45.30
2018-06-29T07:07:40.891Z,44.93
2018-06-29T07:08:40.886Z,44.63
2018-06-29T07:09:40.859Z,44.63
2018-06-29T07:10:40.844Z,43.62
2018-06-29T07:11:40.834Z,43.77
2018-06-29T07:12:40.847Z,42.96
2018-06-29T07:13:40.815Z,43.57
2018-06-29T07:14:40.817Z,44.07
2018-06-29T07:15:40.801Z,41.63
2018-06-29T07:16:40.778Z,40.23
2018-06-29T07:17:40.767Z,42.49
2018-06-29T07:18:40.758Z,41.87
2018-06-29T07:19:40.747Z,42.35
2018-06-29T07:20:40.750Z,41.61
2018-06-29T07:21:40.725Z,41.71
2018-06-29T07:22:40.737Z,41.89
2018-06-29T07:23:40.701Z,41.81
2018-06-29T07:24:40.693Z,41.38
2018-06-29T07:25:40.682Z,42.38
2018-06-29T07:26:40.672Z,42.01
2018-06-29T07:27:40.659Z,40.82
2018-06-29T07:28:40.668Z,39.42
2018-06-29T07:29:40.641Z,39.93
2018-06-29T07:30:40.629Z,41.55
2018-06-29T07:31:40.616Z,41.46
2018-06-29T07:32:40.608Z,42.03
2018-06-29T07:33:40.595Z,40.64
2018-06-29T07:34:40.599Z,40.33
2018-06-29T07:35:40.575Z,41.53
2018-06-29T07:36:40.568Z,42.22
2018-06-29T07:37:40.554Z,40.53
2018-06-29T07:38:40.623Z,40.33
2018-06-29T07:39:40.534Z,40.33
2018-06-29T07:40:40.521Z,40.80
2018-06-29T07:41:40.512Z,38.79
2018-06-29T07:42:40.499Z,39.72
2018-06-29T07:43:40.491Z,39.54
2018-06-29T07:44:40.502Z,41.02
2018-06-29T07:45:40.466Z,39.34
2018-06-29T07:46:40.471Z,40.41
2018-06-29T07:47:40.447Z,39.81
2018-06-29T07:48:40.436Z,39.78
2018-06-29T07:49:40.428Z,37.47
2018-06-29T07:50:40.438Z,38.54
2018-06-29T07:51:40.407Z,37.95
2018-06-29T07:52:40.393Z,38.26
2018-06-29T07:53:40.386Z,35.64
2018-06-29T07:54:40.417Z,35.72
2018-06-29T07:55:40.364Z,37.41
2018-06-29T07:56:40.368Z,36.71
2018-06-29T07:57:40.341Z,38.10
2018-06-29T07:58:40.389Z,38.62
2018-06-29T07:59:40.323Z,39.17
2018-06-29T08:00:40.345Z,39.17
2018-06-29T08:01:40.301Z,39.30
2018-06-29T08:02:40.315Z,39.32
2018-06-29T08:03:40.283Z,39.22
2018-06-29T08:04:40.268Z,40.61
2018-06-29T08:05:40.261Z,40.09
2018-06-29T08:06:40.260Z,40.31
2018-06-29T08:07:40.239Z,40.61
2018-06-29T08:08:40.228Z,41.57
2018-06-29T08:09:40.214Z,40.61
2018-06-29T08:10:40.274Z,39.65
2018-06-29T08:11:40.218Z,39.15
2018-06-29T08:12:40.187Z,39.04
2018-06-29T08:13:40.173Z,38.67
2018-06-29T08:14:40.163Z,36.96
2018-06-29T08:15:40.154Z,38.54
2018-06-29T08:16:40.143Z,38.45
2018-06-29T08:17:40.147Z,37.55
2018-06-29T08:18:40.125Z,38.35
2018-06-29T08:19:40.113Z,37.14
2018-06-29T08:20:40.101Z,37.01
2018-06-29T08:21:40.092Z,35.82
2018-06-29T08:22:40.151Z,36.69
2018-06-29T08:23:40.071Z,37.07
2018-06-29T08:24:40.061Z,36.77
2018-06-29T08:25:40.053Z,36.88
2018-06-29T08:26:40.041Z,36.41
2018-06-29T08:27:40.034Z,36.23
2018-06-29T08:28:40.037Z,37.43
2018-06-29T08:29:40.013Z,36.84
2018-06-29T08:30:40.000Z,36.02
2018-06-29T08:31:39.992Z,35.72
2018-06-29T08:32:39.982Z,35.39
2018-06-29T08:33:39.986Z,34.97
2018-06-29T08:34:39.981Z,35.69
2018-06-29T08:35:39.950Z,36.41
2018-06-29T08:36:39.938Z,37.14
2018-06-29T08:37:39.932Z,37.37
2018-06-29T08:38:39.944Z,37.61
2018-06-29T08:39:39.916Z,37.63
2018-06-29T08:40:39.923Z,36.74
2018-06-29T08:41:39.930Z,35.43
2018-06-29T08:42:39.881Z,34.92
2018-06-29T08:43:39.874Z,35.63
2018-06-29T08:44:39.863Z,35.10
2018-06-29T08:45:39.851Z,35.35
2018-06-29T08:46:39.874Z,34.94
2018-06-29T08:47:39.850Z,35.94
2018-06-29T08:48:39.825Z,36.11
2018-06-29T08:49:39.908Z,36.00
2018-06-29T08:50:39.806Z,34.99
2018-06-29T08:51:39.795Z,35.41
2018-06-29T08:52:39.790Z,35.23
2018-06-29T08:53:39.787Z,35.80
2018-06-29T08:54:39.765Z,35.54
2018-06-29T08:55:39.759Z,34.82
2018-06-29T08:56:39.746Z,36.08
2018-06-29T08:57:39.747Z,36.20
2018-06-29T08:58:39.726Z,34.90
2018-06-29T08:59:39.715Z,33.92
2018-06-29T09:00:39.706Z,34.00
2018-06-29T09:01:39.712Z,34.49
2018-06-29T09:02:39.687Z,34.94
2018-06-29T09:03:39.677Z,34.54
2018-06-29T09:04:39.670Z,34.95
2018-06-29T09:05:39.662Z,35.23
2018-06-29T09:06:39.673Z,34.51
2018-06-29T09:07:39.642Z,33.98
2018-06-29T09:08:39.634Z,34.38
2018-06-29T09:09:39.624Z,33.38
2018-06-29T09:10:39.612Z,33.74
2018-06-29T09:11:39.606Z,34.15
2018-06-29T09:12:39.634Z,34.39
2018-06-29T09:13:39.585Z,33.28
2018-06-29T09:14:39.574Z,32.86
2018-06-29T09:15:39.569Z,33.85
2018-06-29T09:16:39.556Z,34.15
2018-06-29T09:17:39.547Z,33.75
2018-06-29T09:18:39.555Z,32.81
2018-06-29T09:19:39.528Z,33.53
2018-06-29T09:20:39.522Z,33.62
2018-06-29T09:21:39.512Z,33.29
2018-06-29T09:22:39.503Z,34.87
2018-06-29T09:23:39.510Z,34.16
2018-06-29T09:24:39.488Z,33.58
2018-06-29T09:25:39.475Z,32.89
2018-06-29T09:26:39.464Z,33.10
2018-06-29T09:27:39.454Z,33.18
2018-06-29T09:28:39.445Z,33.77
2018-06-29T09:29:39.450Z,34.05
2018-06-29T09:30:39.426Z,33.41
2018-06-29T09:31:39.420Z,33.25
2018-06-29T09:32:39.412Z,33.75
2018-06-29T09:33:39.398Z,34.31
2018-06-29T09:34:39.429Z,33.29
2018-06-29T09:35:39.390Z,33.07
2018-06-29T09:36:39.372Z,33.07
2018-06-29T09:37:39.365Z,33.48
2018-06-29T09:38:39.353Z,33.53
2018-06-29T09:39:39.346Z,32.89
2018-06-29T09:40:39.352Z,33.82
2018-06-29T09:41:39.326Z,34.31
2018-06-29T09:42:39.412Z,33.07
2018-06-29T09:43:39.312Z,34.13
2018-06-29T09:44:39.315Z,33.02
2018-06-29T09:45:39.290Z,33.08
2018-06-29T09:46:39.317Z,32.50
2018-06-29T09:47:39.274Z,33.72
2018-06-29T09:48:39.265Z,33.15
2018-06-29T09:49:39.258Z,33.25
2018-06-29T09:50:39.247Z,33.22
2018-06-29T09:51:39.235Z,32.21
2018-06-29T09:52:39.239Z,32.69
2018-06-29T09:53:39.218Z,33.46
2018-06-29T09:54:39.210Z,32.38
2018-06-29T09:55:39.199Z,33.17
2018-06-29T09:56:39.191Z,33.36
2018-06-29T09:57:39.201Z,31.79
2018-06-29T09:58:39.191Z,31.40
2018-06-29T09:59:39.178Z,30.93
2018-06-29T10:00:39.175Z,31.40
2018-06-29T10:01:39.154Z,30.99
2018-06-29T10:02:39.465Z,29.50
2018-06-29T10:03:39.127Z,30.00
2018-06-29T10:04:39.137Z,29.70
2018-06-29T10:05:39.110Z,31.09
2018-06-29T10:06:39.116Z,30.18
2018-06-29T10:07:39.094Z,30.83
2018-06-29T10:08:39.098Z,29.55
2018-06-29T10:09:39.076Z,29.35
2018-06-29T10:10:39.076Z,31.54
2018-06-29T10:11:39.058Z,30.37
2018-06-29T10:12:39.050Z,31.40
2018-06-29T10:13:39.053Z,31.85
2018-06-29T10:14:39.029Z,32.67
2018-06-29T10:15:39.020Z,30.14
2018-06-29T10:16:39.022Z,30.91
2018-06-29T10:17:39.002Z,31.70
2018-06-29T10:18:38.996Z,30.70
2018-06-29T10:19:39.051Z,30.10
2018-06-29T10:20:38.975Z,30.46
2018-06-29T10:21:38.971Z,29.16
2018-06-29T10:22:38.958Z,28.18
2018-06-29T10:23:38.967Z,28.49
2018-06-29T10:24:38.957Z,29.17
2018-06-29T10:25:38.946Z,30.83
2018-06-29T10:26:38.924Z,29.20
2018-06-29T10:27:38.914Z,29.53
2018-06-29T10:28:38.907Z,29.80
2018-06-29T10:29:38.896Z,29.60
2018-06-29T10:30:38.913Z,28.25
2018-06-29T10:31:38.877Z,28.23
2018-06-29T10:32:38.871Z,29.50
2018-06-29T10:33:38.863Z,29.52
2018-06-29T10:34:38.851Z,29.33
2018-06-29T10:35:38.842Z,29.62
2018-06-29T10:36:38.922Z,31.60
2018-06-29T10:37:38.825Z,28.26
2018-06-29T10:38:38.817Z,29.44
2018-06-29T10:39:38.808Z,29.64
2018-06-29T10:40:38.799Z,29.25
2018-06-29T10:41:38.813Z,30.50
2018-06-29T10:42:38.787Z,29.63
2018-06-29T10:43:38.775Z,29.63
2018-06-29T10:44:38.791Z,29.43
2018-06-29T10:45:38.755Z,29.62
2018-06-29T10:46:38.778Z,29.13
2018-06-29T10:47:38.739Z,28.15
2018-06-29T10:48:38.728Z,28.91
2018-06-29T10:49:38.722Z,28.22
2018-06-29T10:50:38.718Z,28.11
2018-06-29T10:51:38.703Z,29.44
2018-06-29T10:52:38.709Z,30.30
2018-06-29T10:53:38.686Z,29.98
2018-06-29T10:54:38.677Z,28.77
2018-06-29T10:55:38.668Z,29.25
2018-06-29T10:56:38.672Z,28.40
2018-06-29T10:57:38.663Z,30.78
2018-06-29T10:58:38.646Z,30.39
2018-06-29T10:59:38.632Z,30.49
2018-06-29T11:00:38.623Z,28.11
2018-06-29T11:01:38.630Z,29.30
2018-06-29T11:02:38.619Z,29.68
2018-06-29T11:03:38.617Z,27.77
2018-06-29T11:04:38.589Z,28.47
2018-06-29T11:05:38.579Z,28.30
2018-06-29T11:06:38.589Z,27.94
2018-06-29T11:07:38.576Z,28.23
2018-06-29T11:08:38.554Z,27.33
2018-06-29T11:09:38.547Z,26.72
2018-06-29T11:10:38.551Z,27.61
2018-06-29T11:11:38.526Z,27.91
2018-06-29T11:12:38.557Z,28.09
2018-06-29T11:13:38.530Z,27.78
2018-06-29T11:14:38.498Z,27.19
2018-06-29T11:15:38.495Z,27.29
2018-06-29T11:16:38.483Z,27.10
2018-06-29T11:17:38.475Z,28.57
2018-06-29T11:18:38.483Z,27.87
2018-06-29T11:19:38.460Z,28.38
2018-06-29T11:20:38.450Z,28.09
2018-06-29T11:21:38.441Z,28.91
2018-06-29T11:22:38.501Z,29.38
2018-06-29T11:23:38.439Z,30.78
2018-06-29T11:24:38.414Z,30.40
2018-06-29T11:25:38.409Z,29.48
2018-06-29T11:26:38.398Z,28.15
2018-06-29T11:27:38.403Z,29.14
2018-06-29T11:28:38.382Z,29.24
2018-06-29T11:29:38.372Z,28.65
2018-06-29T11:30:38.376Z,28.93
2018-06-29T11:31:38.354Z,29.55
2018-06-29T11:32:38.346Z,29.64
2018-06-29T11:33:38.351Z,29.36
2018-06-29T11:34:38.328Z,29.35
2018-06-29T11:35:38.316Z,28.16
2018-06-29T11:36:38.316Z,27.97
2018-06-29T11:37:38.305Z,29.38
2018-06-29T11:38:38.306Z,29.34
2018-06-29T11:39:38.301Z,29.53
2018-06-29T11:40:38.272Z,30.53
2018-06-29T11:41:38.268Z,30.67
2018-06-29T11:42:38.288Z,29.66
2018-06-29T11:43:38.248Z,29.46
2018-06-29T11:44:38.241Z,30.35
2018-06-29T11:45:38.247Z,29.45
2018-06-29T11:46:38.223Z,30.72
2018-06-29T11:47:38.214Z,29.14
2018-06-29T11:48:38.247Z,29.66
2018-06-29T11:49:38.195Z,30.23
2018-06-29T11:50:38.188Z,30.61
2018-06-29T11:51:38.182Z,29.73
2018-06-29T11:52:38.168Z,30.04
2018-06-29T11:53:38.163Z,30.05
2018-06-29T11:54:38.165Z,29.25
2018-06-29T11:55:38.184Z,30.15
2018-06-29T11:56:38.136Z,30.68
2018-06-29T11:57:38.126Z,31.38
2018-06-29T11:58:38.120Z,30.26
2018-06-29T11:59:38.107Z,29.85
2018-06-29T12:00:38.127Z,29.59
2018-06-29T12:01:38.106Z,30.55
2018-06-29T12:02:38.084Z,29.66
2018-06-29T12:03:38.076Z,29.46
2018-06-29T12:04:38.064Z,30.77
2018-06-29T12:05:38.060Z,30.90
2018-06-29T12:06:38.062Z,30.88
2018-06-29T12:07:38.041Z,30.44
2018-06-29T12:08:38.033Z,30.13
2018-06-29T12:09:38.037Z,30.32
2018-06-29T12:10:38.012Z,30.71
2018-06-29T12:11:38.029Z,30.55
2018-06-29T12:12:37.994Z,30.47
2018-06-29T12:13:37.989Z,30.57
2018-06-29T12:14:37.976Z,32.56
2018-06-29T12:15:37.971Z,31.84
2018-06-29T12:16:37.962Z,30.65
2018-06-29T12:17:37.964Z,29.64
2018-06-29T12:18:37.943Z,29.44
2018-06-29T12:19:37.931Z,29.50
2018-06-29T12:20:37.973Z,27.83
2018-06-29T12:21:37.934Z,28.43
2018-06-29T12:22:37.907Z,28.26
2018-06-29T12:23:37.914Z,27.87
2018-06-29T12:24:37.888Z,28.16
2018-06-29T12:25:37.966Z,28.20
2018-06-29T12:26:37.871Z,28.61
2018-06-29T12:27:37.892Z,27.95
2018-06-29T12:28:37.854Z,28.45
2018-06-29T12:29:37.848Z,29.44
2018-06-29T12:30:37.836Z,29.64
2018-06-29T12:31:37.828Z,28.03
2018-06-29T12:32:37.835Z,28.61
2018-06-29T12:33:37.827Z,29.18
2018-06-29T12:34:37.800Z,28.00
2018-06-29T12:35:37.791Z,28.11
2018-06-29T12:36:37.785Z,28.97
2018-06-29T12:37:37.790Z,27.77
2018-06-29T12:38:37.767Z,28.29
2018-06-29T12:39:37.756Z,27.97
2018-06-29T12:40:37.757Z,27.19
2018-06-29T12:41:37.737Z,27.56
2018-06-29T12:42:37.748Z,27.95
2018-06-29T12:43:37.724Z,26.78
2018-06-29T12:44:37.713Z,27.09
2018-06-29T12:45:37.704Z,28.16
2018-06-29T12:46:37.694Z,27.90
2018-06-29T12:47:37.683Z,28.69
2018-06-29T12:48:37.697Z,28.41
2018-06-29T12:49:37.670Z,27.92
2018-06-29T12:50:37.658Z,28.79
2018-06-29T12:51:37.701Z,28.19
2018-06-29T12:52:37.640Z,27.10